createdAt,value
2023-06-04T00:02:19.253Z,73.40
2023-06-04T00:04:46.378Z,73.10
2023-06-04T00:07:13.456Z,73.50
2023-06-04T00:09:40.428Z,73.70
2023-06-04T00:12:07.719Z,73.80
2023-06-04T00:14:34.615Z,73.70
2023-06-04T00:17:01.584Z,74.00
2023-06-04T00:19:28.466Z,74.40
2023-06-04T00:21:55.847Z,74.60
2023-06-04T00:24:23.281Z,75.30
2023-06-04T00:26:50.155Z,75.30
2023-06-04T00:29:16.976Z,75.40
2023-06-04T00:31:43.901Z,75.10
2023-06-04T00:34:11.820Z,75.40
2023-06-04T00:36:38.966Z,75.50
2023-06-04T00:39:05.833Z,75.80
2023-06-04T00:41:32.744Z,75.30
2023-06-04T00:44:03.003Z,75.70
2023-06-04T00:46:32.364Z,75.70
2023-06-04T00:48:59.612Z,75.70
2023-06-04T00:51:27.224Z,75.90
2023-06-04T00:53:54.383Z,75.70
2023-06-04T00:56:21.241Z,75.90
2023-06-04T00:58:48.684Z,75.80
2023-06-04T01:01:46.396Z,75.90
2023-06-04T01:04:35.347Z,75.60
2023-06-04T01:07:05.233Z,75.50
2023-06-04T01:09:33.619Z,75.50
2023-06-04T01:12:02.911Z,75.50
2023-06-04T01:14:30.413Z,75.60
2023-06-04T01:17:04.310Z,75.80
2023-06-04T01:20:05.351Z,75.50
2023-06-04T01:22:43.773Z,75.70
2023-06-04T01:25:27.062Z,75.50
2023-06-04T01:27:57.236Z,75.60
2023-06-04T01:30:28.055Z,75.90
2023-06-04T01:32:58.551Z,76.00
2023-06-04T01:35:28.994Z,76.20
2023-06-04T01:37:57.048Z,76.70
2023-06-04T01:40:25.135Z,76.60
2023-06-04T01:42:52.206Z,76.70
2023-06-04T01:45:19.306Z,77.00
2023-06-04T01:47:46.149Z,77.00
2023-06-04T01:50:12.975Z,76.80
2023-06-04T01:52:40.952Z,76.90
2023-06-04T01:55:15.433Z,76.80
2023-06-04T01:57:45.216Z,76.70
2023-06-04T02:00:13.141Z,76.70
2023-06-04T02:02:42.787Z,77.10
2023-06-04T02:05:10.758Z,77.30
2023-06-04T02:07:42.194Z,77.10
2023-06-04T02:10:10.509Z,76.90
2023-06-04T02:12:40.022Z,77.10
2023-06-04T02:15:07.774Z,77.10
2023-06-04T02:17:38.707Z,77.10
2023-06-04T02:20:07.134Z,77.20
2023-06-04T02:22:34.046Z,77.20
2023-06-04T02:25:01.059Z,77.10
2023-06-04T02:27:28.284Z,77.10
2023-06-04T02:29:55.154Z,77.20
2023-06-04T02:32:22.115Z,77.30
2023-06-04T02:34:50.053Z,77.50
2023-06-04T02:37:16.911Z,77.50
2023-06-04T02:39:43.700Z,77.50
2023-06-04T02:42:10.535Z,77.20
2023-06-04T02:44:37.367Z,77.30
2023-06-04T02:47:05.003Z,77.30
2023-06-04T02:49:32.070Z,77.20
2023-06-04T02:51:58.984Z,77.30
2023-06-04T02:54:25.835Z,77.60
2023-06-04T02:56:53.347Z,77.50
2023-06-04T02:59:20.405Z,77.30
2023-06-04T03:01:47.377Z,77.10
2023-06-04T03:04:16.720Z,77.30
2023-06-04T03:06:47.464Z,77.10
2023-06-04T03:09:14.847Z,77.00
2023-06-04T03:11:41.963Z,77.40
2023-06-04T03:14:08.815Z,77.10
2023-06-04T03:16:35.668Z,77.00
2023-06-04T03:19:02.659Z,76.90
2023-06-04T03:21:30.286Z,76.90
2023-06-04T03:23:57.585Z,76.70
2023-06-04T03:26:24.590Z,76.80
2023-06-04T03:28:51.416Z,76.90
2023-06-04T03:31:18.367Z,76.90
2023-06-04T03:33:45.486Z,76.80
2023-06-04T03:36:12.345Z,77.00
2023-06-04T03:38:39.226Z,76.90
2023-06-04T03:41:06.267Z,77.00
2023-06-04T03:43:33.349Z,77.30
2023-06-04T03:46:00.317Z,77.30
2023-06-04T03:48:27.073Z,77.60
2023-06-04T03:50:54.022Z,77.20
2023-06-04T03:53:21.019Z,77.40
2023-06-04T03:55:47.901Z,77.30
2023-06-04T03:58:15.913Z,77.30
2023-06-04T04:00:42.812Z,77.50
2023-06-04T04:03:11.041Z,77.70
2023-06-04T04:05:38.083Z,77.40
2023-06-04T04:08:05.802Z,77.60
2023-06-04T04:10:32.721Z,77.50
2023-06-04T04:12:59.673Z,77.50
2023-06-04T04:15:26.783Z,77.30
2023-06-04T04:17:54.096Z,77.00
2023-06-04T04:20:21.046Z,77.30
2023-06-04T04:22:50.536Z,77.20
2023-06-04T04:25:18.256Z,77.30
2023-06-04T04:27:45.275Z,76.90
2023-06-04T04:30:13.854Z,76.80
2023-06-04T04:32:49.757Z,76.70
2023-06-04T04:35:19.232Z,76.90
2023-06-04T04:37:46.585Z,76.80
2023-06-04T04:40:14.666Z,76.50
2023-06-04T04:42:42.831Z,76.50
2023-06-04T04:45:10.619Z,75.80
2023-06-04T04:47:37.775Z,75.80
2023-06-04T04:50:05.250Z,75.70
2023-06-04T04:52:32.141Z,75.50
2023-06-04T04:54:59.122Z,75.10
2023-06-04T04:57:26.085Z,74.90
2023-06-04T04:59:53.174Z,74.90
2023-06-04T05:02:19.984Z,75.00
2023-06-04T05:04:46.924Z,74.90
2023-06-04T05:07:13.868Z,74.70
2023-06-04T05:09:41.628Z,74.70
2023-06-04T05:12:08.619Z,74.50
2023-06-04T05:14:38.125Z,74.20
2023-06-04T05:17:05.064Z,74.20
2023-06-04T05:19:33.923Z,74.40
2023-06-04T05:22:01.833Z,74.20
2023-06-04T05:24:29.822Z,74.20
2023-06-04T05:26:57.417Z,73.30
2023-06-04T05:29:24.916Z,73.10
2023-06-04T05:31:51.902Z,73.10
2023-06-04T05:34:19.477Z,72.90
2023-06-04T05:36:46.366Z,72.60
2023-06-04T05:39:13.344Z,72.50
2023-06-04T05:41:40.309Z,71.60
2023-06-04T05:44:07.116Z,71.50
2023-06-04T05:46:34.022Z,71.20
2023-06-04T05:49:01.134Z,70.10
2023-06-04T05:51:27.947Z,71.20
2023-06-04T05:53:54.814Z,70.20
2023-06-04T05:56:22.755Z,70.20
2023-06-04T05:58:53.473Z,69.50
2023-06-04T06:01:21.193Z,68.80
2023-06-04T06:03:48.040Z,69.10
2023-06-04T06:06:15.071Z,68.30
2023-06-04T06:08:41.938Z,68.40
2023-06-04T06:11:11.222Z,68.80
2023-06-04T06:13:38.528Z,68.50
2023-06-04T06:16:05.934Z,67.70
2023-06-04T06:18:33.804Z,67.60
2023-06-04T06:21:00.835Z,67.30
2023-06-04T06:23:27.795Z,67.00
2023-06-04T06:25:54.809Z,66.30
2023-06-04T06:28:21.729Z,66.70
2023-06-04T06:30:48.769Z,65.90
2023-06-04T06:33:15.989Z,65.30
2023-06-04T06:35:42.979Z,65.00
2023-06-04T06:38:09.769Z,64.60
2023-06-04T06:40:36.656Z,64.00
2023-06-04T06:43:03.655Z,63.20
2023-06-04T06:45:30.496Z,62.80
2023-06-04T06:47:57.396Z,62.80
2023-06-04T06:50:24.315Z,59.70
2023-06-04T06:52:51.221Z,58.90
2023-06-04T06:55:18.091Z,58.60
2023-06-04T06:57:45.919Z,58.50
2023-06-04T07:00:13.413Z,57.30
2023-06-04T07:02:40.357Z,56.70
2023-06-04T07:05:07.627Z,56.80
2023-06-04T07:07:34.460Z,56.10
2023-06-04T07:10:01.973Z,57.00
2023-06-04T07:12:28.847Z,55.90
2023-06-04T07:14:55.798Z,55.40
2023-06-04T07:17:23.177Z,55.90
2023-06-04T07:19:50.108Z,55.80
2023-06-04T07:22:16.964Z,55.30
2023-06-04T07:24:44.055Z,54.20
2023-06-04T07:27:15.233Z,54.80
2023-06-04T07:29:45.767Z,55.50
2023-06-04T07:32:13.831Z,55.20
2023-06-04T07:34:41.120Z,54.10
2023-06-04T07:37:09.052Z,54.10
2023-06-04T07:39:35.914Z,54.10
2023-06-04T07:42:03.023Z,53.10
2023-06-04T07:44:29.888Z,53.20
2023-06-04T07:46:56.723Z,53.30
2023-06-04T07:49:23.548Z,52.40
2023-06-04T07:51:50.501Z,53.70
2023-06-04T07:54:17.869Z,53.60
2023-06-04T07:56:44.824Z,54.20
2023-06-04T07:59:11.592Z,53.80
2023-06-04T08:01:38.379Z,53.40
2023-06-04T08:04:05.428Z,53.50
2023-06-04T08:06:32.391Z,52.90
2023-06-04T08:08:59.290Z,52.60
2023-06-04T08:11:26.173Z,52.80
2023-06-04T08:13:53.237Z,52.40
2023-06-04T08:16:20.111Z,50.20
2023-06-04T08:18:47.114Z,50.40
2023-06-04T08:21:14.164Z,50.50
2023-06-04T08:23:41.213Z,49.60
2023-06-04T08:26:09.164Z,50.10
2023-06-04T08:28:36.398Z,48.90
2023-06-04T08:31:03.316Z,48.10
2023-06-04T08:33:30.166Z,46.80
2023-06-04T08:35:56.976Z,46.10
2023-06-04T08:38:23.884Z,46.30
2023-06-04T08:40:53.763Z,46.80
2023-06-04T08:43:20.993Z,46.60
2023-06-04T08:45:52.108Z,47.30
2023-06-04T08:48:21.485Z,46.60
2023-06-04T08:50:50.484Z,45.70
2023-06-04T08:53:17.708Z,44.90
2023-06-04T08:55:44.585Z,44.00
2023-06-04T08:58:14.050Z,44.10
2023-06-04T09:00:41.076Z,44.00
2023-06-04T09:03:08.478Z,44.80
2023-06-04T09:05:37.351Z,44.50
2023-06-04T09:08:09.167Z,44.80
2023-06-04T09:10:38.458Z,44.90
2023-06-04T09:13:07.775Z,46.30
2023-06-04T09:15:34.586Z,44.90
2023-06-04T09:18:01.485Z,46.00
2023-06-04T09:20:29.131Z,45.30
2023-06-04T09:22:55.938Z,44.20
2023-06-04T09:25:31.848Z,43.90
2023-06-04T09:28:07.946Z,44.30
2023-06-04T09:30:34.907Z,44.10
2023-06-04T09:33:11.247Z,43.80
2023-06-04T09:35:38.296Z,44.60
2023-06-04T09:38:06.606Z,43.60
2023-06-04T09:40:40.695Z,43.30
2023-06-04T09:43:07.648Z,43.20
2023-06-04T09:45:36.533Z,42.90
2023-06-04T09:48:05.736Z,42.80
2023-06-04T09:50:38.064Z,41.60
2023-06-04T09:53:16.916Z,42.60
2023-06-04T09:55:44.476Z,42.70
2023-06-04T09:58:13.372Z,43.00
2023-06-04T10:00:41.403Z,43.10
2023-06-04T10:03:16.070Z,42.90
2023-06-04T10:05:43.953Z,42.70
2023-06-04T10:08:12.582Z,42.20
2023-06-04T10:10:39.840Z,42.30
2023-06-04T10:13:19.087Z,42.30
2023-06-04T10:15:49.730Z,43.40
2023-06-04T10:18:17.001Z,42.20
2023-06-04T10:20:44.132Z,42.50
2023-06-04T10:23:11.370Z,41.90
2023-06-04T10:25:38.677Z,40.60
2023-06-04T10:28:05.574Z,41.10
2023-06-04T10:30:32.607Z,41.90
2023-06-04T10:33:00.130Z,41.10
2023-06-04T10:35:34.874Z,40.70
2023-06-04T10:38:15.373Z,40.50
2023-06-04T10:40:42.502Z,40.40
2023-06-04T10:43:14.982Z,39.40
2023-06-04T10:45:41.966Z,40.10
2023-06-04T10:48:10.783Z,39.30
2023-06-04T10:50:50.069Z,39.70
2023-06-04T10:53:19.224Z,39.90
2023-06-04T10:55:50.225Z,39.10
2023-06-04T10:58:18.957Z,39.00
2023-06-04T11:00:48.394Z,38.20
2023-06-04T11:03:15.446Z,38.50
2023-06-04T11:05:44.614Z,37.90
2023-06-04T11:08:13.335Z,38.20
2023-06-04T11:10:42.416Z,39.10
2023-06-04T11:13:09.358Z,39.00
2023-06-04T11:15:47.759Z,39.40
2023-06-04T11:18:19.980Z,39.80
2023-06-04T11:20:48.862Z,39.50
2023-06-04T11:23:16.815Z,39.60
2023-06-04T11:25:45.295Z,40.40
2023-06-04T11:28:24.592Z,40.50
2023-06-04T11:30:58.162Z,39.90
2023-06-04T11:33:25.052Z,39.00
2023-06-04T11:35:51.936Z,39.60
2023-06-04T11:38:18.868Z,39.40
2023-06-04T11:40:55.374Z,38.90
2023-06-04T11:43:22.455Z,38.20
2023-06-04T11:45:49.286Z,38.10
2023-06-04T11:48:16.465Z,37.70
2023-06-04T11:50:43.378Z,37.20
2023-06-04T11:53:10.961Z,37.20
2023-06-04T11:55:40.052Z,36.90
2023-06-04T11:58:07.096Z,36.60
2023-06-04T12:00:34.160Z,36.20
2023-06-04T12:03:01.414Z,36.20
2023-06-04T12:05:32.773Z,36.50
2023-06-04T12:08:11.826Z,35.90
2023-06-04T12:10:43.713Z,37.10
2023-06-04T12:13:12.840Z,36.80
2023-06-04T12:15:39.987Z,37.20
2023-06-04T12:18:07.205Z,37.60
2023-06-04T12:20:34.209Z,37.00
2023-06-04T12:23:01.108Z,37.20
2023-06-04T12:25:29.562Z,36.20
2023-06-04T12:27:58.077Z,35.90
2023-06-04T12:30:40.369Z,36.00
2023-06-04T12:33:07.824Z,35.90
2023-06-04T12:35:35.696Z,34.90
2023-06-04T12:38:05.331Z,34.00
2023-06-04T12:40:32.273Z,35.70
2023-06-04T12:42:59.252Z,36.10
2023-06-04T12:45:26.265Z,36.30
2023-06-04T12:47:53.156Z,36.00
2023-06-04T12:50:22.427Z,35.90
2023-06-04T12:52:49.808Z,36.40
2023-06-04T12:55:16.846Z,36.50
2023-06-04T12:57:45.627Z,35.50
2023-06-04T13:00:13.167Z,35.90
2023-06-04T13:02:40.300Z,36.00
2023-06-04T13:05:07.507Z,36.50
2023-06-04T13:07:34.841Z,36.20
2023-06-04T13:10:01.790Z,36.30
2023-06-04T13:12:28.599Z,36.70
2023-06-04T13:14:57.208Z,37.60
2023-06-04T13:17:24.785Z,39.90
2023-06-04T13:19:52.986Z,41.80
2023-06-04T13:22:19.868Z,42.90
2023-06-04T13:24:46.783Z,43.50
2023-06-04T13:27:13.768Z,43.60
2023-06-04T13:29:41.918Z,46.30
2023-06-04T13:32:12.888Z,45.50
2023-06-04T13:34:39.981Z,46.10
2023-06-04T13:37:08.092Z,45.50
2023-06-04T13:39:34.952Z,44.60
2023-06-04T13:42:02.027Z,44.30
2023-06-04T13:44:30.062Z,44.70
2023-06-04T13:46:58.548Z,43.80
2023-06-04T13:49:26.356Z,44.20
2023-06-04T13:51:53.222Z,43.70
2023-06-04T13:54:20.125Z,43.80
2023-06-04T13:56:47.462Z,44.90
2023-06-04T13:59:14.396Z,45.00
2023-06-04T14:01:41.706Z,45.30
2023-06-04T14:04:08.565Z,46.40
2023-06-04T14:06:37.208Z,44.50
2023-06-04T14:09:04.965Z,44.70
2023-06-04T14:11:33.752Z,44.40
2023-06-04T14:14:00.650Z,44.90
2023-06-04T14:16:27.653Z,45.40
2023-06-04T14:18:54.806Z,42.40
2023-06-04T14:21:22.907Z,44.20
2023-06-04T14:23:51.480Z,43.70
2023-06-04T14:26:19.046Z,41.90
2023-06-04T14:28:45.996Z,41.60
2023-06-04T14:31:15.530Z,40.50
2023-06-04T14:33:42.385Z,40.10
2023-06-04T14:36:09.314Z,38.50
2023-06-04T14:38:36.108Z,40.00
2023-06-04T14:41:02.960Z,41.20
2023-06-04T14:43:30.110Z,42.30
2023-06-04T14:45:57.082Z,43.10
2023-06-04T14:48:24.597Z,43.20
2023-06-04T14:50:54.511Z,42.80
2023-06-04T14:53:21.696Z,43.00
2023-06-04T14:55:48.612Z,43.00
2023-06-04T14:58:16.394Z,42.60
2023-06-04T15:00:43.460Z,42.60
2023-06-04T15:03:10.425Z,42.80
2023-06-04T15:05:37.401Z,42.60
2023-06-04T15:08:04.646Z,43.00
2023-06-04T15:10:32.292Z,43.20
2023-06-04T15:12:59.128Z,43.00
2023-06-04T15:15:27.158Z,43.30
2023-06-04T15:17:54.141Z,43.60
2023-06-04T15:20:21.262Z,43.50
2023-06-04T15:22:48.992Z,44.20
2023-06-04T15:25:16.019Z,44.30
2023-06-04T15:27:42.993Z,43.90
2023-06-04T15:30:10.153Z,44.00
2023-06-04T15:32:37.178Z,44.30
2023-06-04T15:35:05.264Z,44.40
2023-06-04T15:37:32.154Z,44.60
2023-06-04T15:40:00.816Z,44.50
2023-06-04T15:42:28.054Z,44.80
2023-06-04T15:44:55.174Z,44.20
2023-06-04T15:47:22.128Z,44.00
2023-06-04T15:49:49.033Z,43.80
2023-06-04T15:52:16.173Z,43.60
2023-06-04T15:54:46.454Z,43.80
2023-06-04T15:57:14.420Z,43.40
2023-06-04T15:59:42.270Z,43.40
2023-06-04T16:02:09.433Z,43.50
2023-06-04T16:04:36.826Z,43.50
2023-06-04T16:07:06.078Z,44.20
2023-06-04T16:09:33.396Z,43.70
2023-06-04T16:12:00.456Z,43.50
2023-06-04T16:14:27.353Z,43.40
2023-06-04T16:16:54.326Z,43.40
2023-06-04T16:19:21.297Z,43.50
2023-06-04T16:21:48.186Z,44.10
2023-06-04T16:24:15.356Z,44.20
2023-06-04T16:26:42.285Z,44.40
2023-06-04T16:29:09.308Z,44.60
2023-06-04T16:31:36.657Z,44.40
2023-06-04T16:34:03.590Z,43.90
2023-06-04T16:36:31.938Z,43.80
2023-06-04T16:39:00.772Z,44.00
2023-06-04T16:41:28.114Z,44.20
2023-06-04T16:43:54.993Z,43.80
2023-06-04T16:46:21.908Z,43.70
2023-06-04T16:48:48.840Z,43.50
2023-06-04T16:51:15.767Z,43.20
2023-06-04T16:53:42.814Z,43.60
2023-06-04T16:56:10.977Z,44.40
2023-06-04T16:58:39.614Z,44.20
2023-06-04T17:01:09.709Z,44.20
2023-06-04T17:03:37.052Z,44.50
2023-06-04T17:06:04.888Z,44.50
2023-06-04T17:08:31.957Z,44.70
2023-06-04T17:10:58.800Z,45.30
2023-06-04T17:13:25.777Z,45.60
2023-06-04T17:15:52.802Z,45.50
2023-06-04T17:18:21.583Z,45.70
2023-06-04T17:20:48.603Z,46.40
2023-06-04T17:23:26.999Z,46.30
2023-06-04T17:25:54.637Z,46.80
2023-06-04T17:28:21.737Z,47.60
2023-06-04T17:30:49.322Z,47.70
2023-06-04T17:33:16.540Z,48.00
2023-06-04T17:35:43.666Z,48.40
2023-06-04T17:38:11.017Z,48.80
2023-06-04T17:40:38.322Z,48.70
2023-06-04T17:43:05.740Z,48.70
2023-06-04T17:45:35.613Z,49.40
2023-06-04T17:48:02.451Z,49.40
2023-06-04T17:50:29.373Z,49.50
2023-06-04T17:52:58.051Z,49.60
2023-06-04T17:55:27.120Z,50.10
2023-06-04T17:57:56.787Z,51.30
2023-06-04T18:00:23.872Z,51.40
2023-06-04T18:02:51.021Z,51.30
2023-06-04T18:05:18.111Z,52.90
2023-06-04T18:07:46.528Z,54.00
2023-06-04T18:10:15.238Z,53.40
2023-06-04T18:12:46.159Z,52.80
2023-06-04T18:15:16.224Z,52.90
2023-06-04T18:17:43.858Z,53.30
2023-06-04T18:20:12.031Z,54.10
2023-06-04T18:22:39.587Z,54.00
2023-06-04T18:25:08.999Z,55.30
2023-06-04T18:27:36.910Z,54.80
2023-06-04T18:30:06.129Z,57.80
2023-06-04T18:32:33.501Z,58.50
2023-06-04T18:35:00.441Z,58.30
2023-06-04T18:37:27.989Z,58.10
2023-06-04T18:39:55.344Z,57.60
2023-06-04T18:44:57.520Z,58.60
2023-06-04T18:47:24.432Z,58.70
2023-06-04T18:49:51.417Z,60.40
2023-06-04T18:52:18.214Z,61.10
2023-06-04T18:54:45.756Z,61.90
2023-06-04T18:57:14.749Z,62.80
2023-06-04T18:59:41.936Z,63.00
2023-06-04T19:02:08.988Z,64.80
2023-06-04T19:04:35.958Z,66.00
2023-06-04T19:07:06.134Z,66.80
2023-06-04T19:09:32.937Z,67.50
2023-06-04T19:11:59.771Z,68.50
2023-06-04T19:14:26.926Z,69.20
2023-06-04T19:16:53.961Z,69.70
2023-06-04T19:19:22.179Z,69.80
2023-06-04T19:21:53.345Z,70.70
2023-06-04T19:24:21.946Z,71.20
2023-06-04T19:26:52.178Z,72.00
2023-06-04T19:29:37.770Z,72.70
2023-06-04T19:32:05.052Z,72.70
2023-06-04T19:34:31.886Z,72.60
2023-06-04T19:36:58.792Z,72.40
2023-06-04T19:39:25.614Z,73.10
2023-06-04T19:41:52.463Z,73.20
2023-06-04T19:44:19.389Z,73.40
2023-06-04T19:46:49.256Z,73.60
2023-06-04T19:49:16.525Z,74.20
2023-06-04T19:51:43.340Z,74.10
2023-06-04T19:54:10.408Z,74.30
2023-06-04T19:56:41.203Z,75.00
2023-06-04T19:59:07.999Z,74.70
2023-06-04T20:01:35.148Z,74.70
2023-06-04T20:04:02.229Z,74.80
2023-06-04T20:06:29.303Z,74.90
2023-06-04T20:08:56.507Z,74.60
2023-06-04T20:11:24.298Z,74.50
2023-06-04T20:13:51.141Z,75.00
2023-06-04T20:16:18.081Z,74.90
2023-06-04T20:18:45.017Z,74.00
2023-06-04T20:21:11.834Z,73.80
2023-06-04T20:23:38.753Z,74.50
2023-06-04T20:26:05.695Z,74.30
2023-06-04T20:28:32.579Z,74.10
2023-06-04T20:30:59.480Z,74.50
2023-06-04T20:33:29.043Z,74.10
2023-06-04T20:35:55.937Z,74.50
2023-06-04T20:38:22.821Z,74.90
2023-06-04T20:40:49.812Z,75.40
2023-06-04T20:43:16.930Z,75.70
2023-06-04T20:45:43.968Z,75.50
2023-06-04T20:48:10.781Z,75.60
2023-06-04T20:50:37.765Z,76.00
2023-06-04T20:53:04.655Z,76.00
2023-06-04T20:55:31.655Z,76.30
2023-06-04T20:57:58.488Z,76.50
2023-06-04T21:00:28.153Z,76.20
2023-06-04T21:02:56.257Z,76.30
2023-06-04T21:05:23.384Z,76.40
2023-06-04T21:07:50.255Z,76.60
2023-06-04T21:10:17.070Z,76.60
2023-06-04T21:12:43.869Z,76.70
2023-06-04T21:15:11.111Z,76.90
2023-06-04T21:17:38.318Z,76.50
2023-06-04T21:20:05.794Z,76.40
2023-06-04T21:22:32.671Z,76.40
2023-06-04T21:24:59.628Z,76.70
2023-06-04T21:27:26.489Z,77.00
2023-06-04T21:29:53.297Z,76.70
2023-06-04T21:32:20.247Z,77.10
2023-06-04T21:34:47.186Z,76.90
2023-06-04T21:37:14.077Z,76.80
2023-06-04T21:39:40.912Z,76.80
2023-06-04T21:42:07.785Z,77.40
2023-06-04T21:44:34.945Z,76.80
2023-06-04T21:47:02.355Z,77.40
2023-06-04T21:49:29.153Z,77.30
2023-06-04T21:51:56.042Z,77.00
2023-06-04T21:54:23.206Z,76.90
2023-06-04T21:56:50.036Z,77.10
2023-06-04T21:59:16.915Z,77.50
2023-06-04T22:01:44.005Z,77.40
2023-06-04T22:04:11.269Z,77.70
2023-06-04T22:06:38.274Z,77.80
2023-06-04T22:09:05.178Z,77.60
2023-06-04T22:11:32.085Z,77.60
2023-06-04T22:13:58.961Z,77.90
2023-06-04T22:16:26.049Z,77.80
2023-06-04T22:18:54.043Z,78.00
2023-06-04T22:21:21.418Z,78.30
2023-06-04T22:23:48.617Z,77.90
2023-06-04T22:26:25.015Z,77.90
2023-06-04T22:29:02.677Z,77.90
2023-06-04T22:31:29.595Z,77.40
2023-06-04T22:33:56.426Z,77.80
2023-06-04T22:36:23.313Z,77.90
2023-06-04T22:38:50.116Z,77.60
2023-06-04T22:41:16.904Z,77.80
2023-06-04T22:43:43.735Z,77.30
2023-06-04T22:46:10.642Z,77.60
2023-06-04T22:48:37.505Z,77.40
2023-06-04T22:51:06.079Z,77.70
2023-06-04T22:53:33.222Z,77.80
2023-06-04T22:56:00.287Z,77.40
2023-06-04T22:58:27.145Z,77.40
2023-06-04T23:00:54.107Z,77.40
2023-06-04T23:03:21.073Z,77.70
2023-06-04T23:05:48.115Z,78.10
2023-06-04T23:08:14.936Z,77.70
2023-06-04T23:10:41.785Z,77.70
2023-06-04T23:13:08.826Z,77.40
2023-06-04T23:15:36.425Z,77.70
2023-06-04T23:18:03.278Z,77.80
2023-06-04T23:20:30.058Z,77.70
2023-06-04T23:22:57.029Z,77.70
2023-06-04T23:25:23.843Z,77.30
2023-06-04T23:27:50.702Z,77.70
2023-06-04T23:30:19.811Z,78.00
2023-06-04T23:32:47.662Z,77.90
2023-06-04T23:35:14.543Z,78.30
2023-06-04T23:37:41.832Z,78.30
2023-06-04T23:40:08.967Z,78.10
2023-06-04T23:42:35.900Z,77.80
2023-06-04T23:45:02.782Z,78.00
2023-06-04T23:47:29.612Z,78.00
2023-06-04T23:49:58.341Z,78.10
2023-06-04T23:52:25.493Z,78.40
2023-06-04T23:54:52.404Z,78.80
2023-06-04T23:57:19.194Z,79.10
2023-06-04T23:59:46.028Z,79.30
